KEET

Details ICAO KEET (EET)
Name SHELBY CO
Region United States
Timezone America/Chicago (UTC-6.0)
Plans Departing 10
Arriving 7
Stats Elevation 587 ft / 179 m (AMSL)
Location 33.177786° -86.783200°
Runways 1
Magnetic Variation 3.405° W
Sunrise 2017-12-17 12:45:52 UTC / 2017-12-17 06:45:52 Local
Sunset 2017-12-17 22:43:36 UTC / 2017-12-17 16:43:36 Local
Advertisement - Login to hide

Runways

ID Width Length Bearing (true) Bearing (mag) Surface Threshold Offset Overrun Length
15 75 ft / 23 m 5,012 ft / 1,528 m 157.32° 160.73° Asphalt 0 ft / 0 m 0 ft / 0 m
33 75 ft / 23 m 5,012 ft / 1,528 m 337.32° 340.73° Asphalt 0 ft / 0 m 0 ft / 0 m

Map

Weather


0- 5 10 15 20 25 30 35+ Temperature / ° C

Clouds and Precipitation
Forecast for 2017-12-17 12:00 UTC. Updated an hour ago

Ground ~20,000 ft ~40,000 ft Winds

METAR

KEET 171153Z AUTO 00000KT 10SM BKN100 06/01 A3018 RMK AO2 SLP220 T00560006 10056 20028 53003

TAF

TAF KEET 171120Z 1712/1812 00000KT P6SM SCT100 BKN250 FM171500 10003KT 6SM -RA BR OVC025 FM171730 08005KT 4SM -RA BR OVC015 FM172200 10005KT 4SM -RA BR OVC007 FM180000 00000KT 4SM BR OVC007 FM181000 10001KT 1SM BR OVC002

Frequencies

Recorded 134.32 MHz ASOS
Approach 123.80 MHz BIRMINGHAM APP/DEP
Unicom 122.70 MHz CTAF/UNICOM
Warning: Do not use this data for real-world aviation or navigation. No guarantee of current accuracy is given.